QTR55 EGLL-LFPG
Flight info
| Callsign | QTR55 |
|---|---|
| Flight time | 0h 40m |
| Altitude | 25000 |
| Route | MAXIT Y803 MID L612 BOGNA DCT HARDY UM605 BIBAX |
| Aircraft | A388/J-SADE2E3FGHIJ3J4J5M1RWXY/LB1D1 |
Departure
| Time | 2026-05-04 16:21 |
|---|---|
| Airport | London Heathrow Airport (EGLL) |
Arrival
| Time | 2026-05-04 17:01 |
|---|---|
| Airport | Charles de Gaulle International Airport (LFPG) |
| Time | Latitude | Longitude | Altitude | Speed | Heading |
|---|---|---|---|---|---|
| 2026-05-04 15:16 | 51.45919 | -0.45048 | 88 ft | 0 kts | 132° |
| 2026-05-04 15:42 | 51.45923 | -0.45056 | 88 ft | 1 kts | 132° |
| 2026-05-04 15:42 | 51.45928 | -0.45065 | 92 ft | 1 kts | 132° |
| 2026-05-04 15:42 | 51.45932 | -0.45073 | 92 ft | 1 kts | 132° |
| 2026-05-04 15:43 | 51.45937 | -0.45081 | 91 ft | 1 kts | 132° |
| 2026-05-04 15:43 | 51.45941 | -0.45089 | 90 ft | 1 kts | 132° |
| 2026-05-04 15:43 | 51.45945 | -0.45098 | 91 ft | 1 kts | 126° |
| 2026-05-04 15:43 | 51.45949 | -0.45107 | 91 ft | 1 kts | 120° |
| 2026-05-04 15:44 | 51.45951 | -0.45117 | 92 ft | 1 kts | 114° |
| 2026-05-04 15:44 | 51.45953 | -0.45124 | 92 ft | 0 kts | 110° |
| 2026-05-04 15:44 | 51.45952 | -0.45124 | 92 ft | 2 kts | 110° |
| 2026-05-04 15:45 | 51.45956 | -0.45144 | 91 ft | 2 kts | 103° |
| 2026-05-04 15:45 | 51.45955 | -0.45164 | 92 ft | 2 kts | 78° |
| 2026-05-04 15:45 | 51.45948 | -0.45180 | 92 ft | 2 kts | 51° |
| 2026-05-04 15:45 | 51.45941 | -0.45193 | 92 ft | 0 kts | 48° |
| 2026-05-04 15:54 | 51.45941 | -0.45192 | 88 ft | 1 kts | 48° |
| 2026-05-04 15:55 | 51.45946 | -0.45183 | 88 ft | 0 kts | 45° |
| 2026-05-04 15:55 | 51.45970 | -0.45144 | 91 ft | 13 kts | 45° |
| 2026-05-04 15:56 | 51.46071 | -0.44981 | 93 ft | 5 kts | 43° |
| 2026-05-04 15:56 | 51.46101 | -0.44940 | 93 ft | 7 kts | 36° |
| 2026-05-04 15:56 | 51.46112 | -0.44928 | 93 ft | 4 kts | 35° |
| 2026-05-04 15:56 | 51.46148 | -0.44887 | 94 ft | 8 kts | 39° |
| 2026-05-04 15:57 | 51.46201 | -0.44811 | 95 ft | 12 kts | 53° |
| 2026-05-04 15:57 | 51.46243 | -0.44737 | 95 ft | 0 kts | 35° |
| 2026-05-04 15:57 | 51.46252 | -0.44727 | 95 ft | 4 kts | 32° |
| 2026-05-04 15:58 | 51.46272 | -0.44707 | 97 ft | 4 kts | 33° |
| 2026-05-04 15:58 | 51.46302 | -0.44669 | 96 ft | 6 kts | 47° |
| 2026-05-04 15:58 | 51.46327 | -0.44594 | 97 ft | 9 kts | 79° |
| 2026-05-04 15:58 | 51.46326 | -0.44465 | 98 ft | 14 kts | 90° |
| 2026-05-04 15:59 | 51.46327 | -0.44297 | 98 ft | 13 kts | 89° |
| 2026-05-04 15:59 | 51.46328 | -0.44251 | 99 ft | 2 kts | 83° |
| 2026-05-04 15:59 | 51.46329 | -0.44244 | 99 ft | 0 kts | 83° |
| 2026-05-04 16:00 | 51.46329 | -0.44240 | 99 ft | 2 kts | 84° |
| 2026-05-04 16:01 | 51.46333 | -0.44217 | 98 ft | 4 kts | 58° |
| 2026-05-04 16:01 | 51.46362 | -0.44158 | 99 ft | 8 kts | 32° |
| 2026-05-04 16:01 | 51.46422 | -0.44105 | 96 ft | 14 kts | 29° |
| 2026-05-04 16:01 | 51.46521 | -0.44054 | 93 ft | 15 kts | 0° |
| 2026-05-04 16:02 | 51.46544 | -0.44054 | 97 ft | 4 kts | 360° |
| 2026-05-04 16:02 | 51.46590 | -0.44055 | 96 ft | 9 kts | 360° |
| 2026-05-04 16:02 | 51.46666 | -0.43929 | 92 ft | 12 kts | 86° |
| 2026-05-04 16:03 | 51.46670 | -0.43779 | 92 ft | 13 kts | 88° |
| 2026-05-04 16:03 | 51.46692 | -0.43636 | 95 ft | 13 kts | 41° |
| 2026-05-04 16:03 | 51.46734 | -0.43606 | 93 ft | 2 kts | 11° |
| 2026-05-04 16:03 | 51.46764 | -0.43601 | 91 ft | 7 kts | 2° |
| 2026-05-04 16:04 | 51.46826 | -0.43597 | 92 ft | 11 kts | 0° |
| 2026-05-04 16:04 | 51.46977 | -0.43611 | 90 ft | 14 kts | 359° |
| 2026-05-04 16:04 | 51.47070 | -0.43610 | 90 ft | 12 kts | 0° |
| 2026-05-04 16:05 | 51.47144 | -0.43592 | 94 ft | 12 kts | 25° |
| 2026-05-04 16:05 | 51.47207 | -0.43512 | 95 ft | 14 kts | 41° |
| 2026-05-04 16:05 | 51.47368 | -0.43278 | 95 ft | 17 kts | 43° |
| 2026-05-04 16:06 | 51.47448 | -0.43154 | 96 ft | 14 kts | 44° |
| 2026-05-04 16:06 | 51.47497 | -0.43095 | 100 ft | 0 kts | 19° |
| 2026-05-04 16:08 | 51.47508 | -0.43089 | 99 ft | 5 kts | 11° |
| 2026-05-04 16:09 | 51.47595 | -0.43174 | 97 ft | 7 kts | 297° |
| 2026-05-04 16:09 | 51.47615 | -0.43224 | 99 ft | 0 kts | 326° |
| 2026-05-04 16:18 | 51.47617 | -0.43225 | 98 ft | 0 kts | 328° |
| 2026-05-04 16:20 | 51.47765 | -0.43484 | 98 ft | 0 kts | 268° |
| 2026-05-04 16:20 | 51.47779 | -0.44660 | 101 ft | 127 kts | 275° |
| 2026-05-04 16:21 | 51.48019 | -0.49174 | 1613 ft | 155 kts | 270° |
| 2026-05-04 16:22 | 51.47833 | -0.53281 | 2470 ft | 206 kts | 264° |
| 2026-05-04 16:22 | 51.46659 | -0.60021 | 5110 ft | 201 kts | 254° |
| 2026-05-04 16:23 | 51.43438 | -0.63020 | 6999 ft | 233 kts | 174° |
| 2026-05-04 16:24 | 51.36382 | -0.59239 | 6969 ft | 274 kts | 161° |
| 2026-05-04 16:25 | 51.32796 | -0.57223 | 7029 ft | 275 kts | 161° |
| 2026-05-04 16:26 | 51.25177 | -0.56582 | 6929 ft | 277 kts | 187° |
| 2026-05-04 16:26 | 51.19465 | -0.57986 | 6555 ft | 276 kts | 191° |
| 2026-05-04 16:27 | 51.15699 | -0.59174 | 6314 ft | 276 kts | 192° |
| 2026-05-04 16:28 | 51.10042 | -0.61005 | 6158 ft | 278 kts | 192° |
| 2026-05-04 16:28 | 51.04358 | -0.61426 | 8989 ft | 279 kts | 154° |
| 2026-05-04 16:29 | 50.97728 | -0.54311 | 13002 ft | 297 kts | 147° |
| 2026-05-04 16:30 | 50.92499 | -0.48739 | 15703 ft | 307 kts | 147° |
| 2026-05-04 16:31 | 50.88911 | -0.44930 | 17368 ft | 313 kts | 147° |
| 2026-05-04 16:31 | 50.83368 | -0.39054 | 19620 ft | 323 kts | 148° |
| 2026-05-04 16:32 | 50.77688 | -0.33051 | 21706 ft | 333 kts | 149° |
| 2026-05-04 16:33 | 50.73799 | -0.28952 | 23093 ft | 339 kts | 149° |
| 2026-05-04 16:33 | 50.70128 | -0.24155 | 24355 ft | 351 kts | 131° |
| 2026-05-04 16:34 | 50.67737 | -0.17271 | 24943 ft | 362 kts | 119° |
| 2026-05-04 16:34 | 50.66636 | -0.13625 | 24991 ft | 376 kts | 119° |
| 2026-05-04 16:35 | 50.62828 | -0.02406 | 25029 ft | 392 kts | 121° |
| 2026-05-04 16:35 | 50.59382 | 0.08123 | 24343 ft | 416 kts | 118° |
| 2026-05-04 16:36 | 50.58054 | 0.12197 | 24420 ft | 429 kts | 118° |
| 2026-05-04 16:36 | 50.55684 | 0.20957 | 24635 ft | 438 kts | 115° |
| 2026-05-04 16:37 | 50.53120 | 0.29654 | 24912 ft | 429 kts | 135° |
| 2026-05-04 16:37 | 50.51593 | 0.33641 | 24935 ft | 424 kts | 124° |
| 2026-05-04 16:37 | 50.48719 | 0.41816 | 24996 ft | 438 kts | 116° |
| 2026-05-04 16:38 | 50.45742 | 0.50003 | 24972 ft | 431 kts | 131° |
| 2026-05-04 16:39 | 50.39060 | 0.59251 | 24971 ft | 426 kts | 143° |
| 2026-05-04 16:39 | 50.34433 | 0.65072 | 24971 ft | 426 kts | 143° |
| 2026-05-04 16:40 | 50.29802 | 0.70877 | 24972 ft | 426 kts | 143° |
| 2026-05-04 16:40 | 50.25201 | 0.76632 | 24972 ft | 426 kts | 143° |
| 2026-05-04 16:41 | 50.20562 | 0.82419 | 24972 ft | 426 kts | 143° |
| 2026-05-04 16:41 | 50.13625 | 0.91047 | 24972 ft | 424 kts | 143° |
| 2026-05-04 16:42 | 50.06631 | 0.99646 | 24968 ft | 428 kts | 146° |
| 2026-05-04 16:43 | 50.01480 | 1.04094 | 24362 ft | 419 kts | 156° |
| 2026-05-04 16:43 | 49.96259 | 1.07971 | 22737 ft | 412 kts | 155° |
| 2026-05-04 16:43 | 49.93696 | 1.09884 | 22209 ft | 400 kts | 154° |
| 2026-05-04 16:44 | 49.84073 | 1.17095 | 20886 ft | 379 kts | 154° |
| 2026-05-04 16:45 | 49.79349 | 1.20623 | 20158 ft | 372 kts | 154° |
| 2026-05-04 16:46 | 49.72380 | 1.25817 | 19078 ft | 370 kts | 153° |
| 2026-05-04 16:46 | 49.67743 | 1.29264 | 18355 ft | 369 kts | 153° |
| 2026-05-04 16:47 | 49.63149 | 1.32672 | 17630 ft | 364 kts | 153° |
| 2026-05-04 16:47 | 49.58585 | 1.36058 | 16922 ft | 363 kts | 154° |
| 2026-05-04 16:48 | 49.51790 | 1.41071 | 15868 ft | 357 kts | 154° |
| 2026-05-04 16:48 | 49.49557 | 1.42714 | 15519 ft | 354 kts | 154° |
| 2026-05-04 16:49 | 49.45126 | 1.45973 | 14834 ft | 352 kts | 154° |
| 2026-05-04 16:49 | 49.40703 | 1.49220 | 13627 ft | 357 kts | 154° |
| 2026-05-04 16:50 | 49.36178 | 1.52534 | 11894 ft | 356 kts | 154° |
| 2026-05-04 16:50 | 49.31934 | 1.55927 | 11397 ft | 337 kts | 140° |
| 2026-05-04 16:51 | 49.29713 | 1.61963 | 11019 ft | 333 kts | 97° |
| 2026-05-04 16:51 | 49.29565 | 1.65504 | 10975 ft | 333 kts | 93° |
| 2026-05-04 16:51 | 49.29272 | 1.72587 | 10971 ft | 333 kts | 98° |
| 2026-05-04 16:52 | 49.27158 | 1.78758 | 10968 ft | 333 kts | 134° |
| 2026-05-04 16:52 | 49.25465 | 1.81196 | 10968 ft | 333 kts | 135° |
| 2026-05-04 16:53 | 49.22109 | 1.86094 | 10975 ft | 333 kts | 135° |
| 2026-05-04 16:53 | 49.17088 | 1.93448 | 9967 ft | 335 kts | 135° |
| 2026-05-04 16:54 | 49.15388 | 1.95933 | 9129 ft | 337 kts | 135° |
| 2026-05-04 16:55 | 49.08827 | 2.04643 | 7170 ft | 296 kts | 148° |
| 2026-05-04 16:55 | 49.05955 | 2.08857 | 6212 ft | 286 kts | 129° |
| 2026-05-04 16:56 | 49.03324 | 2.13341 | 5194 ft | 282 kts | 133° |
| 2026-05-04 16:56 | 49.00636 | 2.20516 | 4027 ft | 259 kts | 86° |
| 2026-05-04 16:57 | 49.00824 | 2.23156 | 3992 ft | 242 kts | 83° |
| 2026-05-04 16:57 | 49.01153 | 2.28045 | 3595 ft | 225 kts | 84° |
| 2026-05-04 16:58 | 49.01473 | 2.33968 | 2806 ft | 150 kts | 84° |
| 2026-05-04 16:58 | 49.01555 | 2.35480 | 2608 ft | 140 kts | 84° |
| 2026-05-04 16:59 | 49.01730 | 2.38736 | 2196 ft | 161 kts | 85° |
| 2026-05-04 17:00 | 49.02095 | 2.45518 | 1325 ft | 160 kts | 85° |
| 2026-05-04 17:00 | 49.02392 | 2.50598 | 655 ft | 161 kts | 84° |
| 2026-05-04 17:01 | 49.02553 | 2.53919 | 365 ft | 130 kts | 85° |
| 2026-05-04 17:01 | 49.02576 | 2.55240 | 366 ft | 13 kts | 111° |
| 2026-05-04 17:02 | 49.02518 | 2.55476 | 366 ft | 8 kts | 117° |
| 2026-05-04 17:02 | 49.02460 | 2.55586 | 366 ft | 6 kts | 150° |
| 2026-05-04 17:03 | 49.02419 | 2.55611 | 365 ft | 7 kts | 169° |
| 2026-05-04 17:03 | 49.02405 | 2.55614 | 364 ft | 1 kts | 172° |
| 2026-05-04 17:03 | 49.02375 | 2.55621 | 363 ft | 4 kts | 172° |
| 2026-05-04 17:04 | 49.02307 | 2.55634 | 363 ft | 7 kts | 175° |
| 2026-05-04 17:04 | 49.02228 | 2.55643 | 367 ft | 6 kts | 175° |
| 2026-05-04 17:05 | 49.02132 | 2.55655 | 364 ft | 8 kts | 175° |
| 2026-05-04 17:05 | 49.02011 | 2.55665 | 359 ft | 9 kts | 177° |
| 2026-05-04 17:06 | 49.01900 | 2.55626 | 368 ft | 6 kts | 242° |
| 2026-05-04 17:06 | 49.01887 | 2.55561 | 366 ft | 7 kts | 259° |
| 2026-05-04 17:07 | 49.01874 | 2.55409 | 368 ft | 8 kts | 264° |
| 2026-05-04 17:07 | 49.01872 | 2.55381 | 362 ft | 8 kts | 264° |
| 2026-05-04 17:07 | 49.01865 | 2.55237 | 365 ft | 9 kts | 267° |
| 2026-05-04 17:07 | 49.01863 | 2.55197 | 365 ft | 0 kts | 267° |
| 2026-05-04 17:08 | 49.01862 | 2.55183 | 365 ft | 4 kts | 251° |
| 2026-05-04 17:08 | 49.01840 | 2.55144 | 367 ft | 6 kts | 194° |
| 2026-05-04 17:09 | 49.01800 | 2.55135 | 367 ft | 11 kts | 178° |
| 2026-05-04 17:09 | 49.01721 | 2.55139 | 365 ft | 16 kts | 176° |
| 2026-05-04 17:09 | 49.01595 | 2.55163 | 365 ft | 21 kts | 174° |
| 2026-05-04 17:10 | 49.01287 | 2.55198 | 366 ft | 18 kts | 213° |
| 2026-05-04 17:10 | 49.01220 | 2.54672 | 363 ft | 1 kts | 268° |
| 2026-05-04 17:11 | 49.01218 | 2.54618 | 364 ft | 9 kts | 267° |
| 2026-05-04 17:11 | 49.01208 | 2.54517 | 368 ft | 7 kts | 231° |
| 2026-05-04 17:11 | 49.01155 | 2.54502 | 360 ft | 0 kts | 178° |
| 2026-05-04 17:24 | 49.01710 | 2.38357 | 2249 ft | 160 kts | 85° |